sensor_id;sensor_type;location;lat;lon;timestamp;pressure;altitude;pressure_sealevel;temperature;humidity
32033;BME280;31720;52.638;9.216;2023-05-19T00:00:17;102488.16;;;10.74;72.24
32033;BME280;31720;52.638;9.216;2023-05-19T00:03:19;102493.31;;;10.78;72.28
32033;BME280;31720;52.638;9.216;2023-05-19T00:06:21;102488.25;;;10.71;72.78
32033;BME280;31720;52.638;9.216;2023-05-19T00:09:24;102489.22;;;10.66;73.12
32033;BME280;31720;52.638;9.216;2023-05-19T00:12:26;102489.34;;;10.62;73.33
32033;BME280;31720;52.638;9.216;2023-05-19T00:15:29;102499.94;;;10.59;73.51
32033;BME280;31720;52.638;9.216;2023-05-19T00:18:30;102491.22;;;10.58;74.06
32033;BME280;31720;52.638;9.216;2023-05-19T00:21:32;102485.16;;;10.55;74.03
32033;BME280;31720;52.638;9.216;2023-05-19T00:24:33;102491.28;;;10.55;74.49
32033;BME280;31720;52.638;9.216;2023-05-19T00:27:35;102476.47;;;10.51;74.57
32033;BME280;31720;52.638;9.216;2023-05-19T00:30:37;102483.50;;;10.51;75.28
32033;BME280;31720;52.638;9.216;2023-05-19T00:33:39;102474.78;;;10.49;75.39
32033;BME280;31720;52.638;9.216;2023-05-19T00:36:40;102477.63;;;10.41;74.69
32033;BME280;31720;52.638;9.216;2023-05-19T00:39:41;102478.81;;;10.28;73.98
32033;BME280;31720;52.638;9.216;2023-05-19T00:42:43;102473.56;;;10.26;75.41
32033;BME280;31720;52.638;9.216;2023-05-19T00:45:46;102473.44;;;10.32;76.02
32033;BME280;31720;52.638;9.216;2023-05-19T00:48:47;102469.81;;;10.38;74.58
32033;BME280;31720;52.638;9.216;2023-05-19T00:51:48;102471.13;;;10.19;75.95
32033;BME280;31720;52.638;9.216;2023-05-19T00:54:50;102472.91;;;10.18;76.89
32033;BME280;31720;52.638;9.216;2023-05-19T00:57:52;102472.78;;;10.23;75.93
32033;BME280;31720;52.638;9.216;2023-05-19T01:00:55;102470.38;;;10.13;76.01
32033;BME280;31720;52.638;9.216;2023-05-19T01:04:02;102467.97;;;10.04;76.01
32033;BME280;31720;52.638;9.216;2023-05-19T01:07:04;102469.91;;;9.95;77.36
32033;BME280;31720;52.638;9.216;2023-05-19T01:10:06;102469.91;;;9.96;78.10
32033;BME280;31720;52.638;9.216;2023-05-19T01:13:07;102467.22;;;9.99;78.68
32033;BME280;31720;52.638;9.216;2023-05-19T01:16:12;102475.97;;;9.98;78.81
32033;BME280;31720;52.638;9.216;2023-05-19T01:19:30;102471.78;;;9.91;80.14
32033;BME280;31720;52.638;9.216;2023-05-19T01:22:58;102479.75;;;9.85;79.74
32033;BME280;31720;52.638;9.216;2023-05-19T01:26:27;102478.94;;;9.83;79.09
32033;BME280;31720;52.638;9.216;2023-05-19T01:29:41;102476.31;;;9.83;79.82
32033;BME280;31720;52.638;9.216;2023-05-19T01:32:46;102483.50;;;9.75;80.31
32033;BME280;31720;52.638;9.216;2023-05-19T01:35:49;102483.50;;;9.75;79.86
32033;BME280;31720;52.638;9.216;2023-05-19T01:38:55;102476.59;;;9.71;79.52
32033;BME280;31720;52.638;9.216;2023-05-19T01:41:57;102481.03;;;9.69;80.79
32033;BME280;31720;52.638;9.216;2023-05-19T01:44:59;102483.81;;;9.61;80.12
32033;BME280;31720;52.638;9.216;2023-05-19T01:48:03;102486.47;;;9.59;80.95
32033;BME280;31720;52.638;9.216;2023-05-19T01:51:04;102494.34;;;9.59;82.07
32033;BME280;31720;52.638;9.216;2023-05-19T01:54:06;102484.75;;;9.57;81.77
32033;BME280;31720;52.638;9.216;2023-05-19T01:57:17;102489.28;;;9.50;81.65
32033;BME280;31720;52.638;9.216;2023-05-19T02:00:30;102491.06;;;9.50;81.29
32033;BME280;31720;52.638;9.216;2023-05-19T02:03:45;102492.78;;;9.49;82.63
32033;BME280;31720;52.638;9.216;2023-05-19T02:06:54;102486.75;;;9.46;82.11
32033;BME280;31720;52.638;9.216;2023-05-19T02:10:00;102480.66;;;9.45;82.89
32033;BME280;31720;52.638;9.216;2023-05-19T02:13:05;102478.94;;;9.43;82.21
32033;BME280;31720;52.638;9.216;2023-05-19T02:16:09;102472.88;;;9.39;82.86
32033;BME280;31720;52.638;9.216;2023-05-19T02:19:26;102476.28;;;9.44;83.79
32033;BME280;31720;52.638;9.216;2023-05-19T02:22:27;102465.97;;;9.36;82.94
32033;BME280;31720;52.638;9.216;2023-05-19T02:25:29;102468.53;;;9.38;83.24
32033;BME280;31720;52.638;9.216;2023-05-19T02:28:30;102468.59;;;9.36;83.80
32033;BME280;31720;52.638;9.216;2023-05-19T02:31:32;102462.56;;;9.31;83.95
32033;BME280;31720;52.638;9.216;2023-05-19T02:34:34;102459.00;;;9.34;84.30
32033;BME280;31720;52.638;9.216;2023-05-19T02:37:36;102466.16;;;9.27;83.52
32033;BME280;31720;52.638;9.216;2023-05-19T02:40:37;102471.31;;;9.30;84.60
32033;BME280;31720;52.638;9.216;2023-05-19T02:43:38;102466.19;;;9.24;83.78
32033;BME280;31720;52.638;9.216;2023-05-19T02:46:40;102457.53;;;9.21;84.30
32033;BME280;31720;52.638;9.216;2023-05-19T02:49:43;102467.88;;;9.28;85.59
32033;BME280;31720;52.638;9.216;2023-05-19T02:52:44;102457.47;;;9.24;85.48
32033;BME280;31720;52.638;9.216;2023-05-19T02:55:45;102454.78;;;9.27;85.71
32033;BME280;31720;52.638;9.216;2023-05-19T02:58:47;102451.41;;;9.20;86.09
32033;BME280;31720;52.638;9.216;2023-05-19T03:01:49;102452.16;;;9.27;85.97
32033;BME280;31720;52.638;9.216;2023-05-19T03:04:52;102454.97;;;9.18;86.17
32033;BME280;31720;52.638;9.216;2023-05-19T03:07:54;102455.91;;;9.15;86.64
32033;BME280;31720;52.638;9.216;2023-05-19T03:10:55;102446.31;;;9.14;85.90
32033;BME280;31720;52.638;9.216;2023-05-19T03:13:57;102441.97;;;9.13;85.51
32033;BME280;31720;52.638;9.216;2023-05-19T03:16:58;102449.06;;;9.06;86.37
32033;BME280;31720;52.638;9.216;2023-05-19T03:20:01;102446.53;;;9.02;86.48
32033;BME280;31720;52.638;9.216;2023-05-19T03:23:04;102443.09;;;9.00;88.04
32033;BME280;31720;52.638;9.216;2023-05-19T03:26:05;102442.16;;;9.02;86.82
32033;BME280;31720;52.638;9.216;2023-05-19T03:29:06;102442.16;;;9.04;87.70
32033;BME280;31720;52.638;9.216;2023-05-19T03:32:08;102449.16;;;9.02;87.70
32033;BME280;31720;52.638;9.216;2023-05-19T03:35:11;102452.72;;;8.98;87.28
32033;BME280;31720;52.638;9.216;2023-05-19T03:38:12;102456.22;;;8.98;87.43
32033;BME280;31720;52.638;9.216;2023-05-19T03:41:13;102453.66;;;8.95;87.32
32033;BME280;31720;52.638;9.216;2023-05-19T03:44:15;102457.16;;;8.94;87.32
32033;BME280;31720;52.638;9.216;2023-05-19T03:47:16;102459.88;;;8.91;88.10
32033;BME280;31720;52.638;9.216;2023-05-19T03:50:19;102453.66;;;8.95;88.12
32033;BME280;31720;52.638;9.216;2023-05-19T03:53:21;102453.75;;;8.91;88.77
32033;BME280;31720;52.638;9.216;2023-05-19T03:56:23;102453.78;;;8.89;88.96
32033;BME280;31720;52.638;9.216;2023-05-19T03:59:26;102453.72;;;8.92;89.46
32033;BME280;31720;52.638;9.216;2023-05-19T04:02:28;102456.31;;;8.94;88.65
32033;BME280;31720;52.638;9.216;2023-05-19T04:05:30;102471.03;;;8.99;88.14
32033;BME280;31720;52.638;9.216;2023-05-19T04:08:32;102469.41;;;8.94;87.72
32033;BME280;31720;52.638;9.216;2023-05-19T04:11:33;102470.53;;;8.82;88.50
32033;BME280;31720;52.638;9.216;2023-05-19T04:14:35;102467.81;;;8.85;88.85
32033;BME280;31720;52.638;9.216;2023-05-19T04:17:37;102471.34;;;8.84;89.72
32033;BME280;31720;52.638;9.216;2023-05-19T04:20:39;102472.31;;;8.78;88.12
32033;BME280;31720;52.638;9.216;2023-05-19T04:23:41;102476.75;;;8.75;89.17
32033;BME280;31720;52.638;9.216;2023-05-19T04:26:42;102471.63;;;8.69;89.22
32033;BME280;31720;52.638;9.216;2023-05-19T04:29:46;102474.16;;;8.73;90.57
32033;BME280;31720;52.638;9.216;2023-05-19T04:32:48;102475.84;;;8.77;90.35
32033;BME280;31720;52.638;9.216;2023-05-19T04:35:51;102476.72;;;8.78;90.47
32033;BME280;31720;52.638;9.216;2023-05-19T04:38:53;102472.31;;;8.78;91.66
32033;BME280;31720;52.638;9.216;2023-05-19T04:42:01;102477.69;;;8.72;91.23
32033;BME280;31720;52.638;9.216;2023-05-19T04:45:03;102484.56;;;8.78;91.33
32033;BME280;31720;52.638;9.216;2023-05-19T04:48:07;102478.34;;;8.83;90.58
32033;BME280;31720;52.638;9.216;2023-05-19T04:51:10;102470.34;;;8.89;90.44
32033;BME280;31720;52.638;9.216;2023-05-19T04:54:13;102478.22;;;8.89;89.81
32033;BME280;31720;52.638;9.216;2023-05-19T04:57:14;102477.31;;;8.92;89.60
32033;BME280;31720;52.638;9.216;2023-05-19T05:00:17;102470.34;;;8.89;88.62
32033;BME280;31720;52.638;9.216;2023-05-19T05:03:18;102474.69;;;8.92;89.01
32033;BME280;31720;52.638;9.216;2023-05-19T05:06:23;102468.63;;;8.88;88.65
32033;BME280;31720;52.638;9.216;2023-05-19T05:09:24;102474.81;;;8.86;90.62
32033;BME280;31720;52.638;9.216;2023-05-19T05:12:26;102462.59;;;8.85;90.16
32033;BME280;31720;52.638;9.216;2023-05-19T05:15:28;102473.84;;;8.90;91.02
32033;BME280;31720;52.638;9.216;2023-05-19T05:18:30;102471.13;;;8.95;90.16
32033;BME280;31720;52.638;9.216;2023-05-19T05:21:33;102478.91;;;8.99;91.09
32033;BME280;31720;52.638;9.216;2023-05-19T05:24:35;102471.00;;;9.02;90.26
32033;BME280;31720;52.638;9.216;2023-05-19T05:27:37;102482.34;;;9.04;90.91
32033;BME280;31720;52.638;9.216;2023-05-19T05:30:38;102485.75;;;9.09;91.36
32033;BME280;31720;52.638;9.216;2023-05-19T05:33:41;102483.06;;;9.11;91.72
32033;BME280;31720;52.638;9.216;2023-05-19T05:36:44;102478.84;;;9.04;91.72
32033;BME280;31720;52.638;9.216;2023-05-19T05:39:45;102482.09;;;9.17;92.19
32033;BME280;31720;52.638;9.216;2023-05-19T05:42:46;102481.31;;;9.13;92.27
32033;BME280;31720;52.638;9.216;2023-05-19T05:45:48;102477.75;;;9.15;92.74
32033;BME280;31720;52.638;9.216;2023-05-19T05:48:50;102478.59;;;9.18;92.92
32033;BME280;31720;52.638;9.216;2023-05-19T05:51:53;102476.72;;;9.23;94.04
32033;BME280;31720;52.638;9.216;2023-05-19T05:54:55;102475.69;;;9.30;94.35
32033;BME280;31720;52.638;9.216;2023-05-19T05:57:56;102473.78;;;9.38;93.93
32033;BME280;31720;52.638;9.216;2023-05-19T06:00:59;102470.16;;;9.45;93.61
32033;BME280;31720;52.638;9.216;2023-05-19T06:04:01;102470.16;;;9.45;93.07
32033;BME280;31720;52.638;9.216;2023-05-19T06:07:04;102472.75;;;9.47;93.25
32033;BME280;31720;52.638;9.216;2023-05-19T06:10:06;102470.75;;;9.58;95.41
32033;BME280;31720;52.638;9.216;2023-05-19T06:13:08;102471.59;;;9.60;94.53
32033;BME280;31720;52.638;9.216;2023-05-19T06:16:10;102472.34;;;9.65;94.05
32033;BME280;31720;52.638;9.216;2023-05-19T06:19:11;102472.19;;;9.71;94.98
32033;BME280;31720;52.638;9.216;2023-05-19T06:22:14;102464.16;;;9.79;95.88
32033;BME280;31720;52.638;9.216;2023-05-19T06:25:15;102470.13;;;9.87;96.32
32033;BME280;31720;52.638;9.216;2023-05-19T06:28:17;102464.59;;;9.98;97.04
32033;BME280;31720;52.638;9.216;2023-05-19T06:31:18;102463.56;;;10.05;96.11
32033;BME280;31720;52.638;9.216;2023-05-19T06:34:20;102465.19;;;10.10;96.35
32033;BME280;31720;52.638;9.216;2023-05-19T06:37:23;102466.72;;;10.19;97.11
32033;BME280;31720;52.638;9.216;2023-05-19T06:40:24;102467.44;;;10.27;98.22
32033;BME280;31720;52.638;9.216;2023-05-19T06:43:26;102464.59;;;10.35;97.83
32033;BME280;31720;52.638;9.216;2023-05-19T06:46:27;102467.09;;;10.41;98.25
32033;BME280;31720;52.638;9.216;2023-05-19T06:49:29;102467.78;;;10.49;98.37
32033;BME280;31720;52.638;9.216;2023-05-19T06:52:31;102466.59;;;10.61;97.45
32033;BME280;31720;52.638;9.216;2023-05-19T06:55:33;102465.59;;;10.65;93.60
32033;BME280;31720;52.638;9.216;2023-05-19T06:58:34;102467.19;;;10.72;93.33
32033;BME280;31720;52.638;9.216;2023-05-19T07:01:36;102469.53;;;10.83;94.05
32033;BME280;31720;52.638;9.216;2023-05-19T07:04:37;102469.34;;;10.89;93.18
32033;BME280;31720;52.638;9.216;2023-05-19T07:07:41;102464.81;;;10.94;92.41
32033;BME280;31720;52.638;9.216;2023-05-19T07:10:43;102461.13;;;11.01;93.73
32033;BME280;31720;52.638;9.216;2023-05-19T07:13:44;102460.94;;;11.09;93.29
32033;BME280;31720;52.638;9.216;2023-05-19T07:16:45;102461.78;;;11.09;92.92
32033;BME280;31720;52.638;9.216;2023-05-19T07:19:47;102460.69;;;11.16;93.56
32033;BME280;31720;52.638;9.216;2023-05-19T07:22:49;102455.28;;;11.23;93.84
32033;BME280;31720;52.638;9.216;2023-05-19T07:25:53;102463.84;;;11.29;94.60
32033;BME280;31720;52.638;9.216;2023-05-19T07:28:55;102468.75;;;11.41;92.10
32033;BME280;31720;52.638;9.216;2023-05-19T07:31:57;102462.50;;;11.46;91.36
32033;BME280;31720;52.638;9.216;2023-05-19T07:34:58;102460.59;;;11.51;89.61
32033;BME280;31720;52.638;9.216;2023-05-19T07:38:01;102455.28;;;11.52;89.03
32033;BME280;31720;52.638;9.216;2023-05-19T07:41:03;102452.50;;;11.57;91.37
32033;BME280;31720;52.638;9.216;2023-05-19T07:44:04;102451.94;;;11.75;88.69
32033;BME280;31720;52.638;9.216;2023-05-19T07:47:06;102454.09;;;11.92;88.96
32033;BME280;31720;52.638;9.216;2023-05-19T07:50:08;102449.72;;;11.91;88.19
32033;BME280;31720;52.638;9.216;2023-05-19T07:53:10;102454.78;;;11.97;87.56
32033;BME280;31720;52.638;9.216;2023-05-19T07:56:12;102451.22;;;12.00;88.82
32033;BME280;31720;52.638;9.216;2023-05-19T07:59:13;102442.47;;;11.99;87.44
32033;BME280;31720;52.638;9.216;2023-05-19T08:02:14;102451.66;;;12.12;87.79
32033;BME280;31720;52.638;9.216;2023-05-19T08:05:16;102450.50;;;12.21;86.49
32033;BME280;31720;52.638;9.216;2023-05-19T08:08:18;102451.94;;;12.31;85.43
32033;BME280;31720;52.638;9.216;2023-05-19T08:11:21;102452.34;;;12.46;84.75
32033;BME280;31720;52.638;9.216;2023-05-19T08:14:22;102442.59;;;12.48;83.73
32033;BME280;31720;52.638;9.216;2023-05-19T08:17:23;102438.94;;;12.52;83.41
32033;BME280;31720;52.638;9.216;2023-05-19T08:20:25;102432.41;;;12.62;79.69
32033;BME280;31720;52.638;9.216;2023-05-19T08:23:28;102434.38;;;12.82;79.66
32033;BME280;31720;52.638;9.216;2023-05-19T08:26:29;102444.09;;;12.80;81.82
32033;BME280;31720;52.638;9.216;2023-05-19T08:29:31;102431.59;;;12.85;79.28
32033;BME280;31720;52.638;9.216;2023-05-19T08:32:32;102431.50;;;12.88;80.50
32033;BME280;31720;52.638;9.216;2023-05-19T08:35:33;102423.09;;;13.02;80.67
32033;BME280;31720;52.638;9.216;2023-05-19T08:38:36;102424.28;;;13.16;78.31
32033;BME280;31720;52.638;9.216;2023-05-19T08:41:38;102416.03;;;13.27;78.83
32033;BME280;31720;52.638;9.216;2023-05-19T08:44:39;102415.50;;;13.41;77.54
32033;BME280;31720;52.638;9.216;2023-05-19T08:47:45;102401.84;;;13.52;75.76
32033;BME280;31720;52.638;9.216;2023-05-19T08:50:51;102400.25;;;13.48;75.45
32033;BME280;31720;52.638;9.216;2023-05-19T08:54:00;102399.97;;;13.55;76.17
32033;BME280;31720;52.638;9.216;2023-05-19T08:57:05;102393.47;;;13.64;74.98
32033;BME280;31720;52.638;9.216;2023-05-19T09:00:07;102396.53;;;13.75;73.04
32033;BME280;31720;52.638;9.216;2023-05-19T09:03:11;102395.28;;;13.84;71.89
32033;BME280;31720;52.638;9.216;2023-05-19T09:06:14;102398.50;;;13.92;71.62
32033;BME280;31720;52.638;9.216;2023-05-19T09:09:17;102388.50;;;13.99;70.85
32033;BME280;31720;52.638;9.216;2023-05-19T09:12:19;102388.66;;;14.16;70.68
32033;BME280;31720;52.638;9.216;2023-05-19T09:15:24;102376.19;;;14.19;66.40
32033;BME280;31720;52.638;9.216;2023-05-19T09:18:26;102377.59;;;14.28;67.88
32033;BME280;31720;52.638;9.216;2023-05-19T09:21:28;102373.03;;;14.32;66.03
32033;BME280;31720;52.638;9.216;2023-05-19T09:24:32;102376.06;;;14.43;66.53
32033;BME280;31720;52.638;9.216;2023-05-19T09:27:34;102368.00;;;14.66;61.71
32033;BME280;31720;52.638;9.216;2023-05-19T09:30:35;102369.91;;;14.83;60.15
32033;BME280;31720;52.638;9.216;2023-05-19T09:33:37;102361.63;;;14.91;59.81
32033;BME280;31720;52.638;9.216;2023-05-19T09:36:39;102363.00;;;15.00;60.61
32033;BME280;31720;52.638;9.216;2023-05-19T09:39:43;102356.63;;;15.04;61.99
32033;BME280;31720;52.638;9.216;2023-05-19T09:42:48;102359.09;;;15.07;61.03
32033;BME280;31720;52.638;9.216;2023-05-19T09:45:54;102355.75;;;15.22;60.70
32033;BME280;31720;52.638;9.216;2023-05-19T09:48:56;102352.50;;;15.34;59.13
32033;BME280;31720;52.638;9.216;2023-05-19T09:51:58;102344.84;;;15.47;57.57
32033;BME280;31720;52.638;9.216;2023-05-19T09:55:04;102346.16;;;15.75;57.46
32033;BME280;31720;52.638;9.216;2023-05-19T09:58:06;102349.63;;;15.77;57.96
32033;BME280;31720;52.638;9.216;2023-05-19T10:01:07;102334.94;;;15.69;57.22
32033;BME280;31720;52.638;9.216;2023-05-19T10:04:09;102350.03;;;15.86;51.00
32033;BME280;31720;52.638;9.216;2023-05-19T10:07:13;102342.81;;;15.71;54.13
32033;BME280;31720;52.638;9.216;2023-05-19T10:10:17;102342.13;;;15.85;52.24
32033;BME280;31720;52.638;9.216;2023-05-19T10:13:20;102344.03;;;16.00;55.54
32033;BME280;31720;52.638;9.216;2023-05-19T10:16:23;102337.16;;;16.13;55.05
32033;BME280;31720;52.638;9.216;2023-05-19T10:19:27;102335.59;;;16.27;55.44
32033;BME280;31720;52.638;9.216;2023-05-19T10:22:29;102327.53;;;16.28;51.46
32033;BME280;31720;52.638;9.216;2023-05-19T10:25:32;102325.63;;;16.47;53.94
32033;BME280;31720;52.638;9.216;2023-05-19T10:28:36;102321.25;;;16.64;56.25
32033;BME280;31720;52.638;9.216;2023-05-19T10:31:39;102318.97;;;16.56;51.13
32033;BME280;31720;52.638;9.216;2023-05-19T10:34:56;102330.72;;;16.35;52.97
32033;BME280;31720;52.638;9.216;2023-05-19T10:38:14;102325.13;;;16.41;51.45
32033;BME280;31720;52.638;9.216;2023-05-19T10:41:23;102314.03;;;16.33;49.76
32033;BME280;31720;52.638;9.216;2023-05-19T10:44:34;102309.16;;;16.58;52.78
32033;BME280;31720;52.638;9.216;2023-05-19T10:47:40;102321.19;;;16.48;47.56
32033;BME280;31720;52.638;9.216;2023-05-19T10:50:43;102330.72;;;16.35;52.93
32033;BME280;31720;52.638;9.216;2023-05-19T10:53:45;102325.75;;;16.29;53.09
32033;BME280;31720;52.638;9.216;2023-05-19T10:56:47;102317.91;;;16.43;55.22
32033;BME280;31720;52.638;9.216;2023-05-19T10:59:49;102315.53;;;16.71;54.19
32033;BME280;31720;52.638;9.216;2023-05-19T11:02:50;102308.19;;;16.77;54.79
32033;BME280;31720;52.638;9.216;2023-05-19T11:06:15;102311.88;;;16.74;52.43
32033;BME280;31720;52.638;9.216;2023-05-19T11:09:17;102312.41;;;16.96;50.95
32033;BME280;31720;52.638;9.216;2023-05-19T11:12:20;102301.28;;;16.90;50.75
32033;BME280;31720;52.638;9.216;2023-05-19T11:15:33;102295.09;;;16.89;53.12
32033;BME280;31720;52.638;9.216;2023-05-19T11:18:36;102295.69;;;17.42;51.44
32033;BME280;31720;52.638;9.216;2023-05-19T11:21:45;102295.72;;;17.56;49.26
32033;BME280;31720;52.638;9.216;2023-05-19T11:24:48;102299.06;;;17.60;50.45
32033;BME280;31720;52.638;9.216;2023-05-19T11:27:52;102292.59;;;17.49;47.55
32033;BME280;31720;52.638;9.216;2023-05-19T11:30:56;102285.94;;;17.27;46.60
32033;BME280;31720;52.638;9.216;2023-05-19T11:33:59;102282.38;;;17.58;48.54
32033;BME280;31720;52.638;9.216;2023-05-19T11:37:00;102287.16;;;17.97;45.72
32033;BME280;31720;52.638;9.216;2023-05-19T11:40:02;102276.84;;;18.35;45.15
32033;BME280;31720;52.638;9.216;2023-05-19T11:43:04;102272.19;;;18.53;46.87
32033;BME280;31720;52.638;9.216;2023-05-19T11:46:08;102271.81;;;18.45;46.03
32033;BME280;31720;52.638;9.216;2023-05-19T11:49:09;102273.22;;;18.22;48.95
32033;BME280;31720;52.638;9.216;2023-05-19T11:52:11;102277.03;;;18.46;44.70
32033;BME280;31720;52.638;9.216;2023-05-19T11:55:14;102271.81;;;18.45;44.74
32033;BME280;31720;52.638;9.216;2023-05-19T11:58:16;102271.63;;;18.77;44.38
32033;BME280;31720;52.638;9.216;2023-05-19T12:01:22;102279.09;;;18.98;45.26
32033;BME280;31720;52.638;9.216;2023-05-19T12:04:25;102276.91;;;19.32;44.46
32033;BME280;31720;52.638;9.216;2023-05-19T12:07:26;102272.31;;;19.61;44.07
32033;BME280;31720;52.638;9.216;2023-05-19T12:10:29;102277.72;;;19.87;44.27
32033;BME280;31720;52.638;9.216;2023-05-19T12:13:32;102278.53;;;19.74;42.13
32033;BME280;31720;52.638;9.216;2023-05-19T12:16:36;102271.97;;;19.26;41.52
32033;BME280;31720;52.638;9.216;2023-05-19T12:19:38;102275.81;;;18.81;40.53
32033;BME280;31720;52.638;9.216;2023-05-19T12:22:40;102281.69;;;18.57;43.81
32033;BME280;31720;52.638;9.216;2023-05-19T12:25:41;102266.66;;;18.28;43.67
32033;BME280;31720;52.638;9.216;2023-05-19T12:28:43;102268.38;;;18.14;43.75
32033;BME280;31720;52.638;9.216;2023-05-19T12:31:46;102267.09;;;17.91;45.92
32033;BME280;31720;52.638;9.216;2023-05-19T12:34:48;102267.78;;;17.95;45.45
32033;BME280;31720;52.638;9.216;2023-05-19T12:37:50;102260.53;;;17.83;47.44
32033;BME280;31720;52.638;9.216;2023-05-19T12:40:51;102265.00;;;17.82;47.45
32033;BME280;31720;52.638;9.216;2023-05-19T12:43:53;102260.19;;;17.73;48.86
32033;BME280;31720;52.638;9.216;2023-05-19T12:46:57;102259.25;;;17.74;49.20
32033;BME280;31720;52.638;9.216;2023-05-19T12:50:00;102248.13;;;17.67;49.20
32033;BME280;31720;52.638;9.216;2023-05-19T12:53:07;102237.28;;;17.70;47.49
32033;BME280;31720;52.638;9.216;2023-05-19T12:56:10;102246.28;;;17.84;49.19
32033;BME280;31720;52.638;9.216;2023-05-19T12:59:20;102238.63;;;18.50;44.16
32033;BME280;31720;52.638;9.216;2023-05-19T13:02:24;102241.44;;;19.44;43.93
32033;BME280;31720;52.638;9.216;2023-05-19T13:05:26;102245.47;;;20.02;41.90
32033;BME280;31720;52.638;9.216;2023-05-19T13:08:27;102229.81;;;20.49;44.45
32033;BME280;31720;52.638;9.216;2023-05-19T13:11:29;102221.41;;;20.66;40.35
32033;BME280;31720;52.638;9.216;2023-05-19T13:14:30;102226.69;;;20.55;42.48
32033;BME280;31720;52.638;9.216;2023-05-19T13:17:33;102233.09;;;20.14;41.87
32033;BME280;31720;52.638;9.216;2023-05-19T13:20:34;102232.34;;;19.74;41.19
32033;BME280;31720;52.638;9.216;2023-05-19T13:23:36;102219.56;;;20.05;39.48
32033;BME280;31720;52.638;9.216;2023-05-19T13:26:37;102224.91;;;20.17;38.99
32033;BME280;31720;52.638;9.216;2023-05-19T13:29:39;102226.91;;;19.88;40.64
32033;BME280;31720;52.638;9.216;2023-05-19T13:32:42;102231.63;;;19.45;38.57
32033;BME280;31720;52.638;9.216;2023-05-19T13:35:43;102229.03;;;19.31;42.16
32033;BME280;31720;52.638;9.216;2023-05-19T13:38:45;102225.59;;;19.29;40.28
32033;BME280;31720;52.638;9.216;2023-05-19T13:41:46;102225.41;;;19.32;41.81
32033;BME280;31720;52.638;9.216;2023-05-19T13:44:48;102228.56;;;19.24;41.19
32033;BME280;31720;52.638;9.216;2023-05-19T13:47:50;102232.09;;;18.97;39.71
32033;BME280;31720;52.638;9.216;2023-05-19T13:50:52;102215.97;;;18.86;42.90
32033;BME280;31720;52.638;9.216;2023-05-19T13:53:54;102215.41;;;18.81;41.02
32033;BME280;31720;52.638;9.216;2023-05-19T13:56:56;102209.97;;;18.83;41.06
32033;BME280;31720;52.638;9.216;2023-05-19T13:59:57;102203.44;;;19.01;41.63
32033;BME280;31720;52.638;9.216;2023-05-19T14:03:01;102203.69;;;19.50;43.32
32033;BME280;31720;52.638;9.216;2023-05-19T14:06:02;102198.31;;;20.03;40.14
32033;BME280;31720;52.638;9.216;2023-05-19T14:09:04;102194.31;;;20.34;39.70
32033;BME280;31720;52.638;9.216;2023-05-19T14:12:06;102192.88;;;20.67;40.41
32033;BME280;31720;52.638;9.216;2023-05-19T14:15:09;102183.44;;;20.98;39.98
32033;BME280;31720;52.638;9.216;2023-05-19T14:18:12;102190.56;;;21.10;39.68
32033;BME280;31720;52.638;9.216;2023-05-19T14:21:14;102190.72;;;20.96;39.88
32033;BME280;31720;52.638;9.216;2023-05-19T14:24:15;102200.63;;;20.33;36.32
32033;BME280;31720;52.638;9.216;2023-05-19T14:27:17;102215.16;;;20.16;40.48
32033;BME280;31720;52.638;9.216;2023-05-19T14:30:18;102208.03;;;20.04;38.58
32033;BME280;31720;52.638;9.216;2023-05-19T14:33:21;102202.16;;;19.86;37.34
32033;BME280;31720;52.638;9.216;2023-05-19T14:36:22;102197.66;;;19.87;37.72
32033;BME280;31720;52.638;9.216;2023-05-19T14:39:23;102193.38;;;20.35;38.18
32033;BME280;31720;52.638;9.216;2023-05-19T14:42:25;102190.59;;;20.73;37.39
32033;BME280;31720;52.638;9.216;2023-05-19T14:45:26;102185.38;;;20.96;37.78
32033;BME280;31720;52.638;9.216;2023-05-19T14:48:29;102187.19;;;21.19;39.70
32033;BME280;31720;52.638;9.216;2023-05-19T14:51:31;102185.34;;;21.09;36.59
32033;BME280;31720;52.638;9.216;2023-05-19T14:54:32;102190.31;;;21.37;37.48
32033;BME280;31720;52.638;9.216;2023-05-19T14:57:34;102189.97;;;21.42;35.57
32033;BME280;31720;52.638;9.216;2023-05-19T15:00:35;102198.63;;;21.21;35.51
32033;BME280;31720;52.638;9.216;2023-05-19T15:03:38;102197.94;;;21.31;36.01
32033;BME280;31720;52.638;9.216;2023-05-19T15:06:39;102191.41;;;21.35;34.60
32033;BME280;31720;52.638;9.216;2023-05-19T15:09:40;102187.78;;;21.36;35.31
32033;BME280;31720;52.638;9.216;2023-05-19T15:12:42;102181.31;;;21.38;36.73
32033;BME280;31720;52.638;9.216;2023-05-19T15:15:43;102188.84;;;21.33;34.78
32033;BME280;31720;52.638;9.216;2023-05-19T15:18:46;102180.84;;;21.09;35.34
32033;BME280;31720;52.638;9.216;2023-05-19T15:21:47;102182.94;;;20.93;36.93
32033;BME280;31720;52.638;9.216;2023-05-19T15:24:49;102178.94;;;20.74;37.67
32033;BME280;31720;52.638;9.216;2023-05-19T15:27:51;102172.28;;;20.43;37.02
32033;BME280;31720;52.638;9.216;2023-05-19T15:30:52;102167.28;;;20.51;35.38
32033;BME280;31720;52.638;9.216;2023-05-19T15:33:55;102164.22;;;20.69;36.23
32033;BME280;31720;52.638;9.216;2023-05-19T15:36:56;102162.69;;;20.77;37.18
32033;BME280;31720;52.638;9.216;2023-05-19T15:39:57;102173.00;;;20.95;37.29
32033;BME280;31720;52.638;9.216;2023-05-19T15:42:59;102174.06;;;20.92;36.30
32033;BME280;31720;52.638;9.216;2023-05-19T15:46:00;102168.16;;;20.76;37.83
32033;BME280;31720;52.638;9.216;2023-05-19T15:49:05;102164.19;;;20.45;37.64
32033;BME280;31720;52.638;9.216;2023-05-19T15:52:06;102162.00;;;20.13;37.58
32033;BME280;31720;52.638;9.216;2023-05-19T15:55:08;102166.38;;;20.01;37.43
32033;BME280;31720;52.638;9.216;2023-05-19T15:58:10;102158.19;;;19.92;38.21